Helena, Mississippi
Current Conditions -  °F | °C
As of 3:53 AM on Tuesday 27 Jan 2015 (Local Time) from KPQL Reporting Station
Clear Clear  
Wind Chill: 43°   Ceiling: Unl
Heat Index: 43°   Visibility: 10mi
Dew Point: 36°   Wind: 3mph
Humidity: 76%   Direction: 240°WSW
Pressure: 30.03"   Gusts: NA
Location:  30.3649°N, 88.5432°W
Report Text: KPQL 270953Z AUTO 24003KT 10SM CLR 06/02 A3003 RMK AO2 SLP171 T00610022 TSNO $
Loading
Personal Weather Stations






























Interactive Weather Map New forecast layout! Learn more

10-Day Weather Forecast

Advertisements
Track Severe Weather on mobile